To NAV CANADA Home Page Login to a new session Search on AWWS site Feedback and Comments Disclaimer Vers la page française équivalente Tips FAQ What's new on the site To the Forecasts and Observations / NOTAM section To "File a Flight Plan" website Publications and other links Update of the User's profile FIC Telephone Numbers My Weather Data Folder Route Weather Data Regional Weather Data Local Weather Data To the Forecasts and Observations / NOTAM section
Request Generated 04/24/2014 at 01:32:11 UTC . Weather information available at that time is displayed.

METAR/TAF

OTTAWA/GATINEAU/QC    

METAR CYND 240100Z 31009G15KT 15SM SKC 06/M10 A2987 RMK LAST OBS/NEXT
241100 UTC SLP118=
METAR CYND 240000Z 33010G15KT 15SM FEW060 07/M06 A2985 RMK SC1
SLP109=
METAR CYND 232300Z 34010G17KT 15SM SCT060 09/M04 A2983 RMK SC4
SLP103=

*** REMARK        : Forecast period has ended; this was the last TAF issued
*** REMARQUE : La période de prévision est échue; ceci était le dernier TAF qui a été émis
TAF CYND 231738Z 2318/2401 32015G25KT P6SM SCT025 BKN050
FM240000 33018KT P6SM FEW050
RMK NXT FCST WILL BE ISSUED AT 241245Z=
Your time UTC time
Weather data provided by Environment Canada and NAV CANADA